createdAt,value
2023-03-03T00:02:28.626Z,17.55
2023-03-03T00:05:32.604Z,18.20
2023-03-03T00:08:34.858Z,17.10
2023-03-03T00:11:36.682Z,17.52
2023-03-03T00:14:38.906Z,17.38
2023-03-03T00:17:45.389Z,16.52
2023-03-03T00:20:50.000Z,17.38
2023-03-03T00:23:53.745Z,17.42
2023-03-03T00:26:57.038Z,17.98
2023-03-03T00:30:02.220Z,17.17
2023-03-03T00:33:19.836Z,18.13
2023-03-03T00:36:29.848Z,18.02
2023-03-03T00:39:35.865Z,16.75
2023-03-03T00:42:37.767Z,18.05
2023-03-03T00:45:47.650Z,17.00
2023-03-03T00:48:51.878Z,17.38
2023-03-03T00:51:54.774Z,17.73
2023-03-03T00:54:56.787Z,18.88
2023-03-03T00:58:02.262Z,17.40
2023-03-03T01:01:04.638Z,16.90
2023-03-03T01:04:07.930Z,17.13
2023-03-03T01:07:10.813Z,17.75
2023-03-03T01:10:12.892Z,17.45
2023-03-03T01:13:14.798Z,17.55
2023-03-03T01:16:20.936Z,16.38
2023-03-03T01:19:24.080Z,17.38
2023-03-03T01:22:27.801Z,17.42
2023-03-03T01:25:29.701Z,17.27
2023-03-03T01:28:33.412Z,16.88
2023-03-03T01:31:37.754Z,16.52
2023-03-03T01:34:40.979Z,16.08
2023-03-03T01:37:44.814Z,15.90
2023-03-03T01:40:53.000Z,16.95
2023-03-03T01:43:54.973Z,15.40
2023-03-03T01:47:11.350Z,16.05
2023-03-03T01:50:18.704Z,16.52
2023-03-03T01:53:23.761Z,16.20
2023-03-03T01:56:28.827Z,15.77
2023-03-03T01:59:34.311Z,16.50
2023-03-03T02:02:36.967Z,16.23
2023-03-03T02:05:43.360Z,15.23
2023-03-03T02:08:51.812Z,14.95
2023-03-03T02:11:57.709Z,16.15
2023-03-03T02:14:59.704Z,15.43
2023-03-03T02:18:05.237Z,16.58
2023-03-03T02:21:13.081Z,16.63
2023-03-03T02:24:20.642Z,16.00
2023-03-03T02:27:31.446Z,14.75
2023-03-03T02:30:38.396Z,16.27
2023-03-03T02:33:40.830Z,15.85
2023-03-03T02:36:45.868Z,15.98
2023-03-03T02:39:47.726Z,14.32
2023-03-03T02:42:53.694Z,14.43
2023-03-03T02:45:57.305Z,14.43
2023-03-03T02:48:59.568Z,15.48
2023-03-03T02:52:02.689Z,15.43
2023-03-03T02:55:08.184Z,15.50
2023-03-03T02:58:11.581Z,14.88
2023-03-03T03:01:14.859Z,14.70
2023-03-03T03:04:22.429Z,14.50
2023-03-03T03:07:24.359Z,15.25
2023-03-03T03:10:26.171Z,14.63
2023-03-03T03:13:33.617Z,15.45
2023-03-03T03:16:35.479Z,13.80
2023-03-03T03:19:37.382Z,14.73
2023-03-03T03:22:39.615Z,14.45
2023-03-03T03:25:41.499Z,13.50
2023-03-03T03:28:46.444Z,14.23
2023-03-03T03:31:48.643Z,14.30
2023-03-03T03:34:51.148Z,14.88
2023-03-03T03:37:55.526Z,15.35
2023-03-03T03:40:58.015Z,15.00
2023-03-03T03:44:01.457Z,14.00
2023-03-03T03:47:04.565Z,13.40
2023-03-03T03:50:07.126Z,13.38
2023-03-03T03:53:11.006Z,13.98
2023-03-03T03:56:14.055Z,13.85
2023-03-03T03:59:19.503Z,14.20
2023-03-03T04:02:22.024Z,13.68
2023-03-03T04:05:24.233Z,13.98
2023-03-03T04:08:26.721Z,13.73
2023-03-03T04:11:29.152Z,13.57
2023-03-03T04:14:32.546Z,14.55
2023-03-03T04:17:36.014Z,14.68
2023-03-03T04:20:40.248Z,14.25
2023-03-03T04:23:42.463Z,14.15
2023-03-03T04:26:48.125Z,14.65
2023-03-03T04:29:51.330Z,14.77
2023-03-03T04:32:53.496Z,14.90
2023-03-03T04:35:55.353Z,15.20
2023-03-03T04:38:58.085Z,14.63
2023-03-03T04:41:59.905Z,14.40
2023-03-03T04:45:07.509Z,13.85
2023-03-03T04:48:09.966Z,14.82
2023-03-03T04:51:11.741Z,14.85
2023-03-03T04:54:13.507Z,14.13
2023-03-03T04:57:15.973Z,15.18
2023-03-03T05:00:19.774Z,15.68
2023-03-03T05:03:23.766Z,16.27
2023-03-03T05:06:25.594Z,15.15
2023-03-03T05:09:27.545Z,13.88
2023-03-03T05:12:30.919Z,14.52
2023-03-03T05:15:34.545Z,15.98
2023-03-03T05:18:36.555Z,15.80
2023-03-03T05:21:38.852Z,15.90
2023-03-03T05:24:40.900Z,15.50
2023-03-03T05:27:44.340Z,16.33
2023-03-03T05:30:50.414Z,16.90
2023-03-03T05:33:54.991Z,15.88
2023-03-03T05:36:57.040Z,16.27
2023-03-03T05:39:58.880Z,16.73
2023-03-03T05:43:02.989Z,17.05
2023-03-03T05:46:08.112Z,17.38
2023-03-03T05:49:09.905Z,15.77
2023-03-03T05:52:11.661Z,16.80
2023-03-03T05:55:13.430Z,17.77
2023-03-03T05:58:16.868Z,17.45
2023-03-03T06:01:24.292Z,18.52
2023-03-03T06:04:26.301Z,17.58
2023-03-03T06:07:28.676Z,18.17
2023-03-03T06:10:30.535Z,17.35
2023-03-03T06:13:33.434Z,20.27
2023-03-03T06:16:37.233Z,19.70
2023-03-03T06:19:40.003Z,22.58
2023-03-03T06:22:42.044Z,19.77
2023-03-03T06:25:44.663Z,20.75
2023-03-03T06:28:47.019Z,21.05
2023-03-03T06:31:52.628Z,19.98
2023-03-03T06:34:55.076Z,21.40
2023-03-03T06:37:56.832Z,23.55
2023-03-03T06:40:58.672Z,23.92
2023-03-03T06:44:03.369Z,26.83
2023-03-03T06:47:06.606Z,23.13
2023-03-03T06:50:11.902Z,21.67
2023-03-03T06:53:15.691Z,22.10
2023-03-03T06:56:18.658Z,24.10
2023-03-03T06:59:24.265Z,25.70
2023-03-03T07:02:28.023Z,26.67
2023-03-03T07:05:30.878Z,24.58
2023-03-03T07:08:35.614Z,25.17
2023-03-03T07:11:37.712Z,26.70
2023-03-03T07:14:43.051Z,26.65
2023-03-03T07:18:13.976Z,28.38
2023-03-03T07:21:19.197Z,26.98
2023-03-03T07:24:27.078Z,28.35
2023-03-03T07:27:30.892Z,28.90
2023-03-03T07:30:33.520Z,31.73
2023-03-03T07:33:44.889Z,30.85
2023-03-03T07:36:47.926Z,29.33
2023-03-03T07:39:50.731Z,30.13
2023-03-03T07:42:53.158Z,25.73
2023-03-03T07:46:03.299Z,29.20
2023-03-03T07:49:20.620Z,28.02
2023-03-03T07:52:29.725Z,30.75
2023-03-03T07:58:42.175Z,38.42
2023-03-03T08:01:46.196Z,34.60
2023-03-03T08:04:51.425Z,35.97
2023-03-03T08:07:56.813Z,36.20
2023-03-03T08:10:59.462Z,36.25
2023-03-03T08:14:01.980Z,34.50
2023-03-03T08:17:14.783Z,34.72
2023-03-03T08:20:49.350Z,33.92
2023-03-03T08:23:55.969Z,33.92
2023-03-03T08:27:00.543Z,36.38
2023-03-03T08:30:02.557Z,36.53
2023-03-03T08:33:07.506Z,36.67
2023-03-03T08:36:12.545Z,38.65
2023-03-03T08:39:15.138Z,39.17
2023-03-03T08:42:16.883Z,37.92
2023-03-03T08:45:19.198Z,42.42
2023-03-03T08:48:21.426Z,39.92
2023-03-03T08:51:25.005Z,43.35
2023-03-03T08:54:27.133Z,42.38
2023-03-03T08:57:30.313Z,43.50
2023-03-03T09:00:34.316Z,43.13
2023-03-03T09:03:38.991Z,42.83
2023-03-03T09:06:42.351Z,43.58
2023-03-03T09:09:44.332Z,42.30
2023-03-03T09:12:48.407Z,43.30
2023-03-03T09:15:50.502Z,40.50
2023-03-03T09:18:52.688Z,40.63
2023-03-03T09:22:01.838Z,40.72
2023-03-03T09:25:20.417Z,41.90
2023-03-03T09:28:25.095Z,42.28
2023-03-03T09:31:34.070Z,40.90
2023-03-03T09:34:39.932Z,41.05
2023-03-03T09:37:50.978Z,41.47
2023-03-03T09:41:24.875Z,40.38
2023-03-03T09:44:51.988Z,41.15
2023-03-03T09:48:22.383Z,40.67
2023-03-03T09:54:52.072Z,40.63
2023-03-03T09:58:10.888Z,39.45
2023-03-03T10:01:51.123Z,41.28
2023-03-03T10:05:14.771Z,42.20
2023-03-03T10:08:31.955Z,40.60
2023-03-03T10:11:42.310Z,41.35
2023-03-03T10:15:17.323Z,40.45
2023-03-03T10:18:31.055Z,40.80
2023-03-03T10:21:41.378Z,41.15
2023-03-03T10:28:08.309Z,41.13
2023-03-03T10:31:19.516Z,41.67
2023-03-03T10:34:49.491Z,42.25
2023-03-03T10:38:09.147Z,29.33
2023-03-03T10:41:36.938Z,42.08
2023-03-03T10:45:03.177Z,38.90
2023-03-03T10:48:26.305Z,39.92
2023-03-03T10:51:33.925Z,39.65
2023-03-03T10:54:51.415Z,40.95
2023-03-03T10:58:10.807Z,40.72
2023-03-03T11:01:26.960Z,41.15
2023-03-03T11:04:45.124Z,40.17
2023-03-03T11:07:52.119Z,39.72
2023-03-03T11:11:04.330Z,39.42
2023-03-03T11:14:13.940Z,40.10
2023-03-03T11:17:26.345Z,40.97
2023-03-03T11:20:36.331Z,40.72
2023-03-03T11:24:06.272Z,40.33
2023-03-03T11:27:33.880Z,40.35
2023-03-03T11:30:47.710Z,39.40
2023-03-03T11:34:01.241Z,39.10
2023-03-03T11:37:08.612Z,40.55
2023-03-03T11:40:16.749Z,40.65
2023-03-03T11:43:36.017Z,41.22
2023-03-03T11:46:47.773Z,39.08
2023-03-03T11:50:02.254Z,38.35
2023-03-03T11:53:24.145Z,40.35
2023-03-03T11:56:30.128Z,39.13
2023-03-03T12:00:08.135Z,38.00
2023-03-03T12:03:31.617Z,39.70
2023-03-03T12:06:57.434Z,38.38
2023-03-03T12:10:12.783Z,39.03
2023-03-03T12:13:24.555Z,37.67
2023-03-03T12:16:42.967Z,38.83
2023-03-03T12:19:55.298Z,37.25
2023-03-03T12:23:11.983Z,39.15
2023-03-03T12:26:17.623Z,38.38
2023-03-03T12:29:27.830Z,39.25
2023-03-03T12:32:45.371Z,38.80
2023-03-03T12:35:57.946Z,37.05
2023-03-03T12:39:08.108Z,38.03
2023-03-03T12:42:17.008Z,36.65
2023-03-03T12:45:35.515Z,34.88
2023-03-03T12:48:41.824Z,36.58
2023-03-03T12:51:54.942Z,35.85
2023-03-03T12:55:06.668Z,35.13
2023-03-03T12:58:20.289Z,34.55
2023-03-03T13:01:37.552Z,35.42
2023-03-03T13:04:47.957Z,34.83
2023-03-03T13:07:58.269Z,35.63
2023-03-03T13:11:24.164Z,33.65
2023-03-03T13:14:34.880Z,32.90
2023-03-03T13:17:46.209Z,33.63
2023-03-03T13:20:53.898Z,32.55
2023-03-03T13:24:03.152Z,34.10
2023-03-03T13:30:20.183Z,32.38
2023-03-03T13:33:27.133Z,32.22
2023-03-03T13:36:38.230Z,32.47
2023-03-03T13:39:49.499Z,33.05
2023-03-03T13:43:00.289Z,32.60
2023-03-03T13:46:09.971Z,31.30
2023-03-03T13:49:35.373Z,31.15
2023-03-03T13:52:48.944Z,31.95
2023-03-03T13:55:58.246Z,34.35
2023-03-03T14:02:25.508Z,33.45
2023-03-03T14:05:35.339Z,32.38
2023-03-03T14:09:05.389Z,32.30
2023-03-03T14:12:17.760Z,33.83
2023-03-03T14:15:25.489Z,33.50
2023-03-03T14:18:32.787Z,31.85
2023-03-03T14:21:40.481Z,31.25
2023-03-03T14:25:02.088Z,30.83
2023-03-03T14:28:11.319Z,32.78
2023-03-03T14:31:22.925Z,32.63
2023-03-03T14:34:37.195Z,31.98
2023-03-03T14:37:45.267Z,31.77
2023-03-03T14:40:48.217Z,31.92
2023-03-03T14:43:58.985Z,31.35
2023-03-03T14:47:26.525Z,32.13
2023-03-03T14:50:35.641Z,30.73
2023-03-03T14:53:39.034Z,30.33
2023-03-03T14:56:58.769Z,31.08
2023-03-03T15:00:03.301Z,30.65
2023-03-03T15:03:21.384Z,31.33
2023-03-03T15:06:42.617Z,29.55
2023-03-03T15:09:49.872Z,30.95
2023-03-03T15:12:51.727Z,29.25
2023-03-03T15:16:12.189Z,28.75
2023-03-03T15:19:28.359Z,28.77
2023-03-03T15:22:52.206Z,28.65
2023-03-03T15:26:00.784Z,30.00
2023-03-03T15:29:11.885Z,29.67
2023-03-03T15:32:21.270Z,28.63
2023-03-03T15:35:38.439Z,27.83
2023-03-03T15:38:52.769Z,30.15
2023-03-03T15:42:01.915Z,34.33
2023-03-03T15:45:15.578Z,34.28
2023-03-03T15:48:37.156Z,31.80
2023-03-03T15:52:03.218Z,29.38
2023-03-03T15:55:32.304Z,28.65
2023-03-03T15:58:58.328Z,29.38
2023-03-03T16:02:11.958Z,28.20
2023-03-03T16:05:21.040Z,29.42
2023-03-03T16:11:35.007Z,29.38
2023-03-03T16:14:47.419Z,31.02
2023-03-03T16:17:59.383Z,30.85
2023-03-03T16:21:15.562Z,30.60
2023-03-03T16:24:29.523Z,31.80
2023-03-03T16:27:39.545Z,32.28
2023-03-03T16:30:53.015Z,32.20
2023-03-03T16:34:06.616Z,32.28
2023-03-03T16:37:18.688Z,31.90
2023-03-03T16:40:26.049Z,30.80
2023-03-03T16:43:42.654Z,30.92
2023-03-03T16:46:48.017Z,30.15
2023-03-03T16:49:59.601Z,30.40
2023-03-03T16:53:14.383Z,29.27
2023-03-03T16:56:29.119Z,29.52
2023-03-03T17:00:06.336Z,29.15
2023-03-03T17:03:28.687Z,30.20
2023-03-03T17:06:45.882Z,31.73
2023-03-03T17:10:04.294Z,30.33
2023-03-03T17:13:45.584Z,32.42
2023-03-03T17:16:57.692Z,31.73
2023-03-03T17:20:15.298Z,32.28
2023-03-03T17:23:32.956Z,38.28
2023-03-03T17:26:52.951Z,35.95
2023-03-03T17:30:07.187Z,35.13
2023-03-03T17:33:53.244Z,31.20
2023-03-03T17:37:04.186Z,31.52
2023-03-03T17:40:21.530Z,30.10
2023-03-03T17:43:29.113Z,30.85
2023-03-03T17:46:40.221Z,30.60
2023-03-03T17:50:12.630Z,31.17
2023-03-03T17:53:49.934Z,32.03
2023-03-03T17:57:04.219Z,35.38
2023-03-03T18:00:48.740Z,37.33
2023-03-03T18:04:30.985Z,35.33
2023-03-03T18:07:50.939Z,34.88
2023-03-03T18:14:30.578Z,33.28
2023-03-03T18:17:42.473Z,32.65
2023-03-03T18:21:01.599Z,34.67
2023-03-03T18:24:30.602Z,36.00
2023-03-03T18:27:36.074Z,35.30
2023-03-03T18:30:58.349Z,35.10
2023-03-03T18:34:10.100Z,35.40
2023-03-03T18:37:37.916Z,37.63
2023-03-03T18:40:51.614Z,37.67
2023-03-03T18:44:00.929Z,35.53
2023-03-03T18:47:06.966Z,36.47
2023-03-03T18:50:30.989Z,34.97
2023-03-03T18:54:00.956Z,36.22
2023-03-03T18:57:16.819Z,37.03
2023-03-03T19:00:29.195Z,33.63
2023-03-03T19:03:36.354Z,31.67
2023-03-03T19:06:58.680Z,34.28
2023-03-03T19:10:04.524Z,34.80
2023-03-03T19:13:41.099Z,34.33
2023-03-03T19:16:45.458Z,35.75
2023-03-03T19:20:02.265Z,34.40
2023-03-03T19:23:07.700Z,35.55
2023-03-03T19:26:51.598Z,34.40
2023-03-03T19:30:21.157Z,34.20
2023-03-03T19:33:52.519Z,32.60
2023-03-03T19:37:12.099Z,34.30
2023-03-03T19:40:22.967Z,34.08
2023-03-03T19:43:37.847Z,34.45
2023-03-03T19:46:58.898Z,35.88
2023-03-03T19:50:15.959Z,36.10
2023-03-03T19:53:29.664Z,35.63
2023-03-03T19:56:41.911Z,34.70
2023-03-03T19:59:49.939Z,34.70
2023-03-03T20:03:28.929Z,33.40
2023-03-03T20:06:41.568Z,34.30
2023-03-03T20:09:56.114Z,34.88
2023-03-03T20:13:09.975Z,33.72
2023-03-03T20:16:24.253Z,34.92
2023-03-03T20:19:45.552Z,37.13
2023-03-03T20:22:57.337Z,37.28
2023-03-03T20:26:12.244Z,35.28
2023-03-03T20:29:38.083Z,34.97
2023-03-03T20:32:56.412Z,34.20
2023-03-03T20:36:11.540Z,36.10
2023-03-03T20:39:22.775Z,37.03
2023-03-03T20:42:41.052Z,38.22
2023-03-03T20:45:57.011Z,37.92
2023-03-03T20:49:16.596Z,38.08
2023-03-03T20:52:31.175Z,43.30
2023-03-03T20:55:49.492Z,42.75
2023-03-03T20:59:05.816Z,35.70
2023-03-03T21:02:19.330Z,36.08
2023-03-03T21:05:24.133Z,34.55
2023-03-03T21:08:50.518Z,37.03
2023-03-03T21:11:54.311Z,36.20
2023-03-03T21:15:02.558Z,37.55
2023-03-03T21:18:27.911Z,38.85
2023-03-03T21:21:32.616Z,36.22
2023-03-03T21:24:51.265Z,34.83
2023-03-03T21:27:53.759Z,37.20
2023-03-03T21:31:19.765Z,37.20
2023-03-03T21:34:27.712Z,37.22
2023-03-03T21:37:45.778Z,37.13
2023-03-03T21:41:00.543Z,37.30
2023-03-03T21:44:24.846Z,37.40
2023-03-03T21:47:28.631Z,36.35
2023-03-03T21:50:30.722Z,35.90
2023-03-03T21:53:34.603Z,37.50
2023-03-03T21:56:38.075Z,38.58
2023-03-03T21:59:40.190Z,37.28
2023-03-03T22:02:43.347Z,38.10
2023-03-03T22:05:45.180Z,37.10
2023-03-03T22:08:47.145Z,36.47
2023-03-03T22:11:50.493Z,35.80
2023-03-03T22:14:52.604Z,37.28
2023-03-03T22:17:54.639Z,36.03
2023-03-03T22:20:57.002Z,38.58
2023-03-03T22:24:01.328Z,38.70
2023-03-03T22:27:04.586Z,38.08
2023-03-03T22:30:08.352Z,35.65
2023-03-03T22:33:11.211Z,37.47
2023-03-03T22:36:13.992Z,37.60
2023-03-03T22:39:18.032Z,36.90
2023-03-03T22:42:21.193Z,38.15
2023-03-03T22:45:26.267Z,37.50
2023-03-03T22:48:29.159Z,38.28
2023-03-03T22:51:31.152Z,38.63
2023-03-03T22:54:32.958Z,38.33
2023-03-03T22:57:36.232Z,38.33
2023-03-03T23:00:38.740Z,38.30
2023-03-03T23:03:40.817Z,40.45
2023-03-03T23:06:45.476Z,38.80
2023-03-03T23:09:47.329Z,39.15
2023-03-03T23:12:51.135Z,38.80
2023-03-03T23:15:53.012Z,40.20
2023-03-03T23:18:57.905Z,39.20
2023-03-03T23:21:59.750Z,39.67
2023-03-03T23:25:03.225Z,40.10
2023-03-03T23:28:07.036Z,41.13
2023-03-03T23:31:09.070Z,40.22
2023-03-03T23:34:13.485Z,38.58
2023-03-03T23:37:16.894Z,39.80
2023-03-03T23:40:20.248Z,38.42
2023-03-03T23:43:31.140Z,39.95
2023-03-03T23:46:32.997Z,38.13
2023-03-03T23:49:35.807Z,38.72
2023-03-03T23:52:40.626Z,38.20
2023-03-03T23:55:42.649Z,40.08
2023-03-03T23:58:53.082Z,37.92
